sensor_id;sensor_type;location;lat;lon;timestamp;temperature;humidity
983;DHT22;480;48.124;11.578;2022-08-03T00:00:56;21.40;99.90
983;DHT22;480;48.124;11.578;2022-08-03T00:03:23;21.20;99.90
983;DHT22;480;48.124;11.578;2022-08-03T00:05:50;21.20;99.90
983;DHT22;480;48.124;11.578;2022-08-03T00:08:17;21.30;99.90
983;DHT22;480;48.124;11.578;2022-08-03T00:10:44;21.40;99.90
983;DHT22;480;48.124;11.578;2022-08-03T00:13:11;21.50;99.90
983;DHT22;480;48.124;11.578;2022-08-03T00:15:39;21.50;99.90
983;DHT22;480;48.124;11.578;2022-08-03T00:18:08;21.50;99.90
983;DHT22;480;48.124;11.578;2022-08-03T00:20:35;21.10;99.90
983;DHT22;480;48.124;11.578;2022-08-03T00:23:03;20.90;99.90
983;DHT22;480;48.124;11.578;2022-08-03T00:25:30;20.90;99.90
983;DHT22;480;48.124;11.578;2022-08-03T00:27:57;21.00;99.90
983;DHT22;480;48.124;11.578;2022-08-03T00:30:24;21.00;99.90
983;DHT22;480;48.124;11.578;2022-08-03T00:32:51;21.10;99.90
983;DHT22;480;48.124;11.578;2022-08-03T00:35:20;21.20;99.90
983;DHT22;480;48.124;11.578;2022-08-03T00:37:47;21.30;99.90
983;DHT22;480;48.124;11.578;2022-08-03T00:40:15;21.30;99.90
983;DHT22;480;48.124;11.578;2022-08-03T00:42:46;21.20;99.90
983;DHT22;480;48.124;11.578;2022-08-03T00:45:15;21.20;99.90
983;DHT22;480;48.124;11.578;2022-08-03T00:47:42;21.20;99.90
983;DHT22;480;48.124;11.578;2022-08-03T00:50:09;21.10;99.90
983;DHT22;480;48.124;11.578;2022-08-03T00:52:38;21.20;99.90
983;DHT22;480;48.124;11.578;2022-08-03T00:55:06;21.30;99.90
983;DHT22;480;48.124;11.578;2022-08-03T00:57:33;21.30;99.90
983;DHT22;480;48.124;11.578;2022-08-03T01:00:00;21.30;99.90
983;DHT22;480;48.124;11.578;2022-08-03T01:02:27;21.20;99.90
983;DHT22;480;48.124;11.578;2022-08-03T01:04:54;21.20;99.90
983;DHT22;480;48.124;11.578;2022-08-03T01:07:26;21.20;99.90
983;DHT22;480;48.124;11.578;2022-08-03T01:10:02;21.20;99.90
983;DHT22;480;48.124;11.578;2022-08-03T01:12:38;21.20;99.90
983;DHT22;480;48.124;11.578;2022-08-03T01:15:11;21.00;99.90
983;DHT22;480;48.124;11.578;2022-08-03T01:17:46;20.70;99.90
983;DHT22;480;48.124;11.578;2022-08-03T01:20:16;20.50;99.90
983;DHT22;480;48.124;11.578;2022-08-03T01:22:56;20.40;99.90
983;DHT22;480;48.124;11.578;2022-08-03T01:25:39;20.50;99.90
983;DHT22;480;48.124;11.578;2022-08-03T01:28:28;20.60;99.90
983;DHT22;480;48.124;11.578;2022-08-03T01:31:05;20.70;99.90
983;DHT22;480;48.124;11.578;2022-08-03T01:33:36;20.80;99.90
983;DHT22;480;48.124;11.578;2022-08-03T01:36:08;20.80;99.90
983;DHT22;480;48.124;11.578;2022-08-03T01:38:40;20.90;99.90
983;DHT22;480;48.124;11.578;2022-08-03T01:41:13;20.90;99.90
983;DHT22;480;48.124;11.578;2022-08-03T01:43:43;21.00;99.90
983;DHT22;480;48.124;11.578;2022-08-03T01:46:15;21.00;99.90
983;DHT22;480;48.124;11.578;2022-08-03T01:48:46;21.00;99.90
983;DHT22;480;48.124;11.578;2022-08-03T01:51:14;21.10;99.90
983;DHT22;480;48.124;11.578;2022-08-03T01:53:42;21.00;99.90
983;DHT22;480;48.124;11.578;2022-08-03T01:56:10;21.00;99.90
983;DHT22;480;48.124;11.578;2022-08-03T01:58:40;21.10;99.90
983;DHT22;480;48.124;11.578;2022-08-03T02:01:08;21.00;99.90
983;DHT22;480;48.124;11.578;2022-08-03T02:03:38;21.10;99.90
983;DHT22;480;48.124;11.578;2022-08-03T02:06:09;21.00;99.90
983;DHT22;480;48.124;11.578;2022-08-03T02:08:38;21.00;99.90
983;DHT22;480;48.124;11.578;2022-08-03T02:11:05;20.90;99.90
983;DHT22;480;48.124;11.578;2022-08-03T02:13:34;20.90;99.90
983;DHT22;480;48.124;11.578;2022-08-03T02:16:02;20.90;99.90
983;DHT22;480;48.124;11.578;2022-08-03T02:18:30;20.90;99.90
983;DHT22;480;48.124;11.578;2022-08-03T02:21:00;20.90;99.90
983;DHT22;480;48.124;11.578;2022-08-03T02:23:29;20.90;99.90
983;DHT22;480;48.124;11.578;2022-08-03T02:25:57;20.90;99.90
983;DHT22;480;48.124;11.578;2022-08-03T02:28:31;20.70;99.90
983;DHT22;480;48.124;11.578;2022-08-03T02:30:59;20.40;99.90
983;DHT22;480;48.124;11.578;2022-08-03T02:33:31;20.40;99.90
983;DHT22;480;48.124;11.578;2022-08-03T02:36:02;20.50;99.90
983;DHT22;480;48.124;11.578;2022-08-03T02:38:33;20.50;99.90
983;DHT22;480;48.124;11.578;2022-08-03T02:41:06;20.50;99.90
983;DHT22;480;48.124;11.578;2022-08-03T02:43:34;20.60;99.90
983;DHT22;480;48.124;11.578;2022-08-03T02:46:02;20.60;99.90
983;DHT22;480;48.124;11.578;2022-08-03T02:48:31;20.60;99.90
983;DHT22;480;48.124;11.578;2022-08-03T02:51:02;20.60;99.90
983;DHT22;480;48.124;11.578;2022-08-03T02:53:30;20.60;99.90
983;DHT22;480;48.124;11.578;2022-08-03T02:55:58;20.60;99.90
983;DHT22;480;48.124;11.578;2022-08-03T02:58:26;20.60;99.90
983;DHT22;480;48.124;11.578;2022-08-03T03:00:55;20.40;99.90
983;DHT22;480;48.124;11.578;2022-08-03T03:03:22;20.10;99.90
983;DHT22;480;48.124;11.578;2022-08-03T03:05:50;20.00;99.90
983;DHT22;480;48.124;11.578;2022-08-03T03:08:19;19.80;99.90
983;DHT22;480;48.124;11.578;2022-08-03T03:10:47;19.90;99.90
983;DHT22;480;48.124;11.578;2022-08-03T03:13:15;19.90;99.90
983;DHT22;480;48.124;11.578;2022-08-03T03:15:44;19.90;99.90
983;DHT22;480;48.124;11.578;2022-08-03T03:18:13;20.00;99.90
983;DHT22;480;48.124;11.578;2022-08-03T03:20:41;20.10;99.90
983;DHT22;480;48.124;11.578;2022-08-03T03:23:09;20.10;99.90
983;DHT22;480;48.124;11.578;2022-08-03T03:25:38;20.20;99.90
983;DHT22;480;48.124;11.578;2022-08-03T03:28:05;20.20;99.90
983;DHT22;480;48.124;11.578;2022-08-03T03:30:33;20.30;99.90
983;DHT22;480;48.124;11.578;2022-08-03T03:33:00;20.30;99.90
983;DHT22;480;48.124;11.578;2022-08-03T03:35:28;20.20;99.90
983;DHT22;480;48.124;11.578;2022-08-03T03:37:56;20.10;99.90
983;DHT22;480;48.124;11.578;2022-08-03T03:40:23;20.10;99.90
983;DHT22;480;48.124;11.578;2022-08-03T03:42:51;20.20;99.90
983;DHT22;480;48.124;11.578;2022-08-03T03:45:19;20.10;99.90
983;DHT22;480;48.124;11.578;2022-08-03T03:47:47;20.10;99.90
983;DHT22;480;48.124;11.578;2022-08-03T03:50:15;20.10;99.90
983;DHT22;480;48.124;11.578;2022-08-03T03:52:44;20.10;99.90
983;DHT22;480;48.124;11.578;2022-08-03T03:55:15;20.10;99.90
983;DHT22;480;48.124;11.578;2022-08-03T03:57:42;19.90;99.90
983;DHT22;480;48.124;11.578;2022-08-03T04:00:12;20.00;99.90
983;DHT22;480;48.124;11.578;2022-08-03T04:02:39;20.00;99.90
983;DHT22;480;48.124;11.578;2022-08-03T04:05:07;20.10;99.90
983;DHT22;480;48.124;11.578;2022-08-03T04:07:57;20.10;99.90
983;DHT22;480;48.124;11.578;2022-08-03T04:10:45;20.10;99.90
983;DHT22;480;48.124;11.578;2022-08-03T04:13:28;19.50;99.90
983;DHT22;480;48.124;11.578;2022-08-03T04:15:58;19.00;99.90
983;DHT22;480;48.124;11.578;2022-08-03T04:18:28;18.80;99.90
983;DHT22;480;48.124;11.578;2022-08-03T04:20:58;18.60;99.90
983;DHT22;480;48.124;11.578;2022-08-03T04:23:30;18.60;99.90
983;DHT22;480;48.124;11.578;2022-08-03T04:26:00;18.40;99.90
983;DHT22;480;48.124;11.578;2022-08-03T04:28:28;18.50;99.90
983;DHT22;480;48.124;11.578;2022-08-03T04:30:58;18.70;99.90
983;DHT22;480;48.124;11.578;2022-08-03T04:33:26;18.60;99.90
983;DHT22;480;48.124;11.578;2022-08-03T04:35:57;18.70;99.90
983;DHT22;480;48.124;11.578;2022-08-03T04:38:25;18.80;99.90
983;DHT22;480;48.124;11.578;2022-08-03T04:40:53;18.90;99.90
983;DHT22;480;48.124;11.578;2022-08-03T04:43:21;18.90;99.90
983;DHT22;480;48.124;11.578;2022-08-03T04:45:50;19.00;99.90
983;DHT22;480;48.124;11.578;2022-08-03T04:48:19;19.00;99.90
983;DHT22;480;48.124;11.578;2022-08-03T04:50:47;19.10;99.90
983;DHT22;480;48.124;11.578;2022-08-03T04:53:15;19.20;99.90
983;DHT22;480;48.124;11.578;2022-08-03T04:55:43;19.40;99.90
983;DHT22;480;48.124;11.578;2022-08-03T04:58:10;19.40;99.90
983;DHT22;480;48.124;11.578;2022-08-03T05:00:37;19.30;99.90
983;DHT22;480;48.124;11.578;2022-08-03T05:03:04;19.30;99.90
983;DHT22;480;48.124;11.578;2022-08-03T05:05:33;19.50;99.90
983;DHT22;480;48.124;11.578;2022-08-03T05:07:59;19.50;99.90
983;DHT22;480;48.124;11.578;2022-08-03T05:10:26;19.20;99.90
983;DHT22;480;48.124;11.578;2022-08-03T05:12:53;19.20;99.90
983;DHT22;480;48.124;11.578;2022-08-03T05:15:20;18.80;99.90
983;DHT22;480;48.124;11.578;2022-08-03T05:17:49;19.00;99.90
983;DHT22;480;48.124;11.578;2022-08-03T05:20:16;19.10;99.90
983;DHT22;480;48.124;11.578;2022-08-03T05:22:44;19.30;99.90
983;DHT22;480;48.124;11.578;2022-08-03T05:25:11;19.20;99.90
983;DHT22;480;48.124;11.578;2022-08-03T05:27:38;19.50;99.90
983;DHT22;480;48.124;11.578;2022-08-03T05:30:06;19.70;99.90
983;DHT22;480;48.124;11.578;2022-08-03T05:32:33;19.90;99.90
983;DHT22;480;48.124;11.578;2022-08-03T05:35:00;20.00;99.90
983;DHT22;480;48.124;11.578;2022-08-03T05:37:27;19.90;99.90
983;DHT22;480;48.124;11.578;2022-08-03T05:39:55;19.90;99.90
983;DHT22;480;48.124;11.578;2022-08-03T05:42:22;20.00;99.90
983;DHT22;480;48.124;11.578;2022-08-03T05:44:49;20.10;99.90
983;DHT22;480;48.124;11.578;2022-08-03T05:47:16;20.20;99.90
983;DHT22;480;48.124;11.578;2022-08-03T05:49:43;20.40;99.90
983;DHT22;480;48.124;11.578;2022-08-03T05:52:10;20.50;99.90
983;DHT22;480;48.124;11.578;2022-08-03T05:54:37;20.50;99.90
983;DHT22;480;48.124;11.578;2022-08-03T05:57:05;20.70;99.90
983;DHT22;480;48.124;11.578;2022-08-03T05:59:32;20.70;99.90
983;DHT22;480;48.124;11.578;2022-08-03T06:01:59;20.80;99.90
983;DHT22;480;48.124;11.578;2022-08-03T06:04:26;21.00;99.90
983;DHT22;480;48.124;11.578;2022-08-03T06:06:53;21.10;99.90
983;DHT22;480;48.124;11.578;2022-08-03T06:09:20;21.30;99.90
983;DHT22;480;48.124;11.578;2022-08-03T06:11:47;21.40;99.90
983;DHT22;480;48.124;11.578;2022-08-03T06:14:15;21.50;99.90
983;DHT22;480;48.124;11.578;2022-08-03T06:16:42;21.60;99.90
983;DHT22;480;48.124;11.578;2022-08-03T06:19:09;21.80;99.90
983;DHT22;480;48.124;11.578;2022-08-03T06:21:36;21.90;99.90
983;DHT22;480;48.124;11.578;2022-08-03T06:24:03;22.00;99.90
983;DHT22;480;48.124;11.578;2022-08-03T06:26:31;22.10;99.90
983;DHT22;480;48.124;11.578;2022-08-03T06:28:58;22.30;99.90
983;DHT22;480;48.124;11.578;2022-08-03T06:31:27;22.40;99.90
983;DHT22;480;48.124;11.578;2022-08-03T06:33:54;22.40;99.90
983;DHT22;480;48.124;11.578;2022-08-03T06:36:21;22.70;99.90
983;DHT22;480;48.124;11.578;2022-08-03T06:38:50;22.90;99.90
983;DHT22;480;48.124;11.578;2022-08-03T06:41:17;23.00;99.90
983;DHT22;480;48.124;11.578;2022-08-03T06:43:44;23.10;99.90
983;DHT22;480;48.124;11.578;2022-08-03T06:46:11;23.10;99.90
983;DHT22;480;48.124;11.578;2022-08-03T06:48:39;23.30;99.90
983;DHT22;480;48.124;11.578;2022-08-03T06:51:06;23.20;99.90
983;DHT22;480;48.124;11.578;2022-08-03T06:53:34;23.50;99.90
983;DHT22;480;48.124;11.578;2022-08-03T06:56:01;23.60;99.90
983;DHT22;480;48.124;11.578;2022-08-03T06:58:29;23.50;99.90
983;DHT22;480;48.124;11.578;2022-08-03T07:00:56;23.60;99.90
983;DHT22;480;48.124;11.578;2022-08-03T07:03:23;23.60;99.90
983;DHT22;480;48.124;11.578;2022-08-03T07:05:52;23.80;99.90
983;DHT22;480;48.124;11.578;2022-08-03T07:08:19;24.00;99.90
983;DHT22;480;48.124;11.578;2022-08-03T07:10:46;24.20;99.90
983;DHT22;480;48.124;11.578;2022-08-03T07:13:13;24.30;99.90
983;DHT22;480;48.124;11.578;2022-08-03T07:15:40;24.40;99.90
983;DHT22;480;48.124;11.578;2022-08-03T07:18:07;24.20;99.90
983;DHT22;480;48.124;11.578;2022-08-03T07:20:34;24.40;99.90
983;DHT22;480;48.124;11.578;2022-08-03T07:23:02;24.50;99.90
983;DHT22;480;48.124;11.578;2022-08-03T07:25:29;24.50;99.90
983;DHT22;480;48.124;11.578;2022-08-03T07:27:56;24.60;99.90
983;DHT22;480;48.124;11.578;2022-08-03T07:30:23;24.80;99.90
983;DHT22;480;48.124;11.578;2022-08-03T07:32:50;24.80;99.90
983;DHT22;480;48.124;11.578;2022-08-03T07:35:17;24.90;99.90
983;DHT22;480;48.124;11.578;2022-08-03T07:37:44;25.00;99.90
983;DHT22;480;48.124;11.578;2022-08-03T07:40:12;25.10;99.90
983;DHT22;480;48.124;11.578;2022-08-03T07:42:39;25.10;99.90
983;DHT22;480;48.124;11.578;2022-08-03T07:45:08;25.20;99.90
983;DHT22;480;48.124;11.578;2022-08-03T07:47:35;24.90;99.90
983;DHT22;480;48.124;11.578;2022-08-03T07:50:04;25.00;99.90
983;DHT22;480;48.124;11.578;2022-08-03T07:52:31;25.10;99.90
983;DHT22;480;48.124;11.578;2022-08-03T07:55:15;25.20;99.90
983;DHT22;480;48.124;11.578;2022-08-03T07:57:43;25.30;99.90
983;DHT22;480;48.124;11.578;2022-08-03T08:00:14;25.20;99.90
983;DHT22;480;48.124;11.578;2022-08-03T08:02:41;24.90;99.90
983;DHT22;480;48.124;11.578;2022-08-03T08:05:08;24.90;99.90
983;DHT22;480;48.124;11.578;2022-08-03T08:07:37;25.00;99.90
983;DHT22;480;48.124;11.578;2022-08-03T08:10:09;25.30;99.90
983;DHT22;480;48.124;11.578;2022-08-03T08:12:38;25.30;99.90
983;DHT22;480;48.124;11.578;2022-08-03T08:15:06;25.50;99.90
983;DHT22;480;48.124;11.578;2022-08-03T08:17:41;25.60;99.90
983;DHT22;480;48.124;11.578;2022-08-03T08:20:10;25.80;99.90
983;DHT22;480;48.124;11.578;2022-08-03T08:22:37;25.70;99.90
983;DHT22;480;48.124;11.578;2022-08-03T08:25:05;25.60;99.90
983;DHT22;480;48.124;11.578;2022-08-03T08:27:32;25.80;99.90
983;DHT22;480;48.124;11.578;2022-08-03T08:30:03;25.90;99.90
983;DHT22;480;48.124;11.578;2022-08-03T08:32:30;26.00;99.90
983;DHT22;480;48.124;11.578;2022-08-03T08:34:57;26.30;99.90
983;DHT22;480;48.124;11.578;2022-08-03T08:37:24;26.60;99.90
983;DHT22;480;48.124;11.578;2022-08-03T08:39:51;26.60;99.90
983;DHT22;480;48.124;11.578;2022-08-03T08:42:18;26.50;99.90
983;DHT22;480;48.124;11.578;2022-08-03T08:44:45;26.40;99.90
983;DHT22;480;48.124;11.578;2022-08-03T08:47:14;26.30;99.90
983;DHT22;480;48.124;11.578;2022-08-03T08:49:41;26.30;99.90
983;DHT22;480;48.124;11.578;2022-08-03T08:52:09;26.60;99.90
983;DHT22;480;48.124;11.578;2022-08-03T08:54:39;26.50;99.30
983;DHT22;480;48.124;11.578;2022-08-03T08:57:08;26.50;99.00
983;DHT22;480;48.124;11.578;2022-08-03T08:59:36;26.60;99.00
983;DHT22;480;48.124;11.578;2022-08-03T09:02:03;26.70;99.40
983;DHT22;480;48.124;11.578;2022-08-03T09:04:32;26.80;98.30
983;DHT22;480;48.124;11.578;2022-08-03T09:07:00;26.90;98.40
983;DHT22;480;48.124;11.578;2022-08-03T09:09:27;26.90;97.40
983;DHT22;480;48.124;11.578;2022-08-03T09:11:54;27.20;97.20
983;DHT22;480;48.124;11.578;2022-08-03T09:14:21;27.30;96.00
983;DHT22;480;48.124;11.578;2022-08-03T09:16:55;27.30;96.20
983;DHT22;480;48.124;11.578;2022-08-03T09:19:25;27.10;96.30
983;DHT22;480;48.124;11.578;2022-08-03T09:22:08;27.40;97.10
983;DHT22;480;48.124;11.578;2022-08-03T09:24:36;27.50;96.20
983;DHT22;480;48.124;11.578;2022-08-03T09:27:05;27.70;96.40
983;DHT22;480;48.124;11.578;2022-08-03T09:29:37;27.70;95.20
983;DHT22;480;48.124;11.578;2022-08-03T09:32:04;27.50;95.20
983;DHT22;480;48.124;11.578;2022-08-03T09:34:31;27.50;95.30
983;DHT22;480;48.124;11.578;2022-08-03T09:36:58;27.40;94.90
983;DHT22;480;48.124;11.578;2022-08-03T09:39:27;27.60;95.40
983;DHT22;480;48.124;11.578;2022-08-03T09:42:07;27.90;95.10
983;DHT22;480;48.124;11.578;2022-08-03T09:44:34;27.80;94.50
983;DHT22;480;48.124;11.578;2022-08-03T09:47:02;28.00;94.30
983;DHT22;480;48.124;11.578;2022-08-03T09:49:30;28.20;94.60
983;DHT22;480;48.124;11.578;2022-08-03T09:52:00;28.20;93.20
983;DHT22;480;48.124;11.578;2022-08-03T09:54:30;28.20;92.80
983;DHT22;480;48.124;11.578;2022-08-03T09:56:58;28.30;93.00
983;DHT22;480;48.124;11.578;2022-08-03T09:59:28;28.30;92.20
983;DHT22;480;48.124;11.578;2022-08-03T10:01:56;28.50;92.30
983;DHT22;480;48.124;11.578;2022-08-03T10:04:24;28.70;92.80
983;DHT22;480;48.124;11.578;2022-08-03T10:07:03;28.50;91.50
983;DHT22;480;48.124;11.578;2022-08-03T10:09:32;28.70;91.90
983;DHT22;480;48.124;11.578;2022-08-03T10:12:07;29.00;91.10
983;DHT22;480;48.124;11.578;2022-08-03T10:14:36;29.10;91.70
983;DHT22;480;48.124;11.578;2022-08-03T10:17:05;29.30;91.20
983;DHT22;480;48.124;11.578;2022-08-03T10:19:32;29.40;90.80
983;DHT22;480;48.124;11.578;2022-08-03T10:22:02;29.50;90.80
983;DHT22;480;48.124;11.578;2022-08-03T10:24:33;29.30;90.20
983;DHT22;480;48.124;11.578;2022-08-03T10:27:02;29.30;90.40
983;DHT22;480;48.124;11.578;2022-08-03T10:29:38;29.60;90.00
983;DHT22;480;48.124;11.578;2022-08-03T10:32:11;29.90;90.20
983;DHT22;480;48.124;11.578;2022-08-03T10:34:41;29.70;87.60
983;DHT22;480;48.124;11.578;2022-08-03T10:37:11;29.70;89.20
983;DHT22;480;48.124;11.578;2022-08-03T10:39:43;29.60;90.20
983;DHT22;480;48.124;11.578;2022-08-03T10:42:20;29.80;90.30
983;DHT22;480;48.124;11.578;2022-08-03T10:44:54;30.10;87.40
983;DHT22;480;48.124;11.578;2022-08-03T10:47:24;30.10;86.90
983;DHT22;480;48.124;11.578;2022-08-03T10:49:51;30.30;85.40
983;DHT22;480;48.124;11.578;2022-08-03T10:52:19;30.40;86.30
983;DHT22;480;48.124;11.578;2022-08-03T10:54:47;30.60;86.00
983;DHT22;480;48.124;11.578;2022-08-03T10:57:48;30.70;85.10
983;DHT22;480;48.124;11.578;2022-08-03T11:00:16;30.50;85.10
983;DHT22;480;48.124;11.578;2022-08-03T11:03:06;30.20;84.60
983;DHT22;480;48.124;11.578;2022-08-03T11:05:36;30.50;84.60
983;DHT22;480;48.124;11.578;2022-08-03T11:08:26;30.70;86.30
983;DHT22;480;48.124;11.578;2022-08-03T11:10:57;31.10;85.30
983;DHT22;480;48.124;11.578;2022-08-03T11:13:26;31.60;84.70
983;DHT22;480;48.124;11.578;2022-08-03T11:15:57;31.30;82.00
983;DHT22;480;48.124;11.578;2022-08-03T11:18:25;31.40;84.20
983;DHT22;480;48.124;11.578;2022-08-03T11:20:54;31.70;82.50
983;DHT22;480;48.124;11.578;2022-08-03T11:23:40;31.80;79.70
983;DHT22;480;48.124;11.578;2022-08-03T11:26:15;32.50;80.10
983;DHT22;480;48.124;11.578;2022-08-03T11:28:44;32.70;78.10
983;DHT22;480;48.124;11.578;2022-08-03T11:31:43;32.50;78.50
983;DHT22;480;48.124;11.578;2022-08-03T11:34:13;31.80;78.40
983;DHT22;480;48.124;11.578;2022-08-03T11:37:19;31.10;77.50
983;DHT22;480;48.124;11.578;2022-08-03T11:39:56;31.20;77.70
983;DHT22;480;48.124;11.578;2022-08-03T11:42:43;31.50;75.80
983;DHT22;480;48.124;11.578;2022-08-03T11:45:12;31.90;76.80
983;DHT22;480;48.124;11.578;2022-08-03T11:47:40;32.10;74.40
983;DHT22;480;48.124;11.578;2022-08-03T11:50:07;32.20;75.50
983;DHT22;480;48.124;11.578;2022-08-03T11:52:41;32.40;74.70
983;DHT22;480;48.124;11.578;2022-08-03T11:55:12;32.80;72.90
983;DHT22;480;48.124;11.578;2022-08-03T11:57:41;33.00;73.30
983;DHT22;480;48.124;11.578;2022-08-03T12:00:26;32.50;72.90
983;DHT22;480;48.124;11.578;2022-08-03T12:03:01;32.00;73.50
983;DHT22;480;48.124;11.578;2022-08-03T12:05:37;31.60;73.70
983;DHT22;480;48.124;11.578;2022-08-03T12:08:04;32.00;73.60
983;DHT22;480;48.124;11.578;2022-08-03T12:10:32;32.20;71.80
983;DHT22;480;48.124;11.578;2022-08-03T12:13:01;32.20;73.30
983;DHT22;480;48.124;11.578;2022-08-03T12:15:32;32.50;72.90
983;DHT22;480;48.124;11.578;2022-08-03T12:18:00;32.00;70.70
983;DHT22;480;48.124;11.578;2022-08-03T12:20:29;32.10;71.80
983;DHT22;480;48.124;11.578;2022-08-03T12:23:02;32.40;74.10
983;DHT22;480;48.124;11.578;2022-08-03T12:25:30;32.60;70.70
983;DHT22;480;48.124;11.578;2022-08-03T12:28:10;33.30;70.80
983;DHT22;480;48.124;11.578;2022-08-03T12:30:39;33.20;71.70
983;DHT22;480;48.124;11.578;2022-08-03T12:33:17;32.90;68.50
983;DHT22;480;48.124;11.578;2022-08-03T12:35:47;33.10;69.10
983;DHT22;480;48.124;11.578;2022-08-03T12:38:20;33.00;69.80
983;DHT22;480;48.124;11.578;2022-08-03T12:41:01;33.50;68.00
983;DHT22;480;48.124;11.578;2022-08-03T12:43:29;33.50;66.40
983;DHT22;480;48.124;11.578;2022-08-03T12:46:12;33.30;68.00
983;DHT22;480;48.124;11.578;2022-08-03T12:49:03;33.60;66.80
983;DHT22;480;48.124;11.578;2022-08-03T12:51:32;33.50;64.90
983;DHT22;480;48.124;11.578;2022-08-03T12:54:00;33.00;65.50
983;DHT22;480;48.124;11.578;2022-08-03T12:56:27;32.90;65.70
983;DHT22;480;48.124;11.578;2022-08-03T12:58:54;32.90;65.10
983;DHT22;480;48.124;11.578;2022-08-03T13:01:23;33.50;66.90
983;DHT22;480;48.124;11.578;2022-08-03T13:03:52;33.70;65.70
983;DHT22;480;48.124;11.578;2022-08-03T13:06:21;33.40;64.20
983;DHT22;480;48.124;11.578;2022-08-03T13:08:49;32.30;65.20
983;DHT22;480;48.124;11.578;2022-08-03T13:11:27;32.00;66.60
983;DHT22;480;48.124;11.578;2022-08-03T13:13:55;32.00;66.50
983;DHT22;480;48.124;11.578;2022-08-03T13:16:23;32.20;67.00
983;DHT22;480;48.124;11.578;2022-08-03T13:18:51;32.80;66.80
983;DHT22;480;48.124;11.578;2022-08-03T13:21:19;32.80;66.00
983;DHT22;480;48.124;11.578;2022-08-03T13:23:46;33.00;66.30
983;DHT22;480;48.124;11.578;2022-08-03T13:26:14;33.60;65.50
983;DHT22;480;48.124;11.578;2022-08-03T13:28:41;34.00;64.50
983;DHT22;480;48.124;11.578;2022-08-03T13:31:08;33.90;63.80
983;DHT22;480;48.124;11.578;2022-08-03T13:33:36;34.20;61.90
983;DHT22;480;48.124;11.578;2022-08-03T13:36:06;34.00;61.60
983;DHT22;480;48.124;11.578;2022-08-03T13:38:33;34.60;61.20
983;DHT22;480;48.124;11.578;2022-08-03T13:41:01;35.00;60.60
983;DHT22;480;48.124;11.578;2022-08-03T13:43:29;35.10;61.70
983;DHT22;480;48.124;11.578;2022-08-03T13:45:56;34.70;63.70
983;DHT22;480;48.124;11.578;2022-08-03T13:48:23;35.20;63.60
983;DHT22;480;48.124;11.578;2022-08-03T13:50:51;35.20;63.50
983;DHT22;480;48.124;11.578;2022-08-03T13:53:18;34.70;64.50
983;DHT22;480;48.124;11.578;2022-08-03T13:55:45;34.80;65.30
983;DHT22;480;48.124;11.578;2022-08-03T13:58:12;34.20;65.70
983;DHT22;480;48.124;11.578;2022-08-03T14:00:39;34.50;66.30
983;DHT22;480;48.124;11.578;2022-08-03T14:03:06;34.50;65.70
983;DHT22;480;48.124;11.578;2022-08-03T14:05:34;34.30;67.70
983;DHT22;480;48.124;11.578;2022-08-03T14:08:04;34.20;68.20
983;DHT22;480;48.124;11.578;2022-08-03T14:10:33;34.40;66.80
983;DHT22;480;48.124;11.578;2022-08-03T14:13:00;34.30;66.40
983;DHT22;480;48.124;11.578;2022-08-03T14:15:27;34.30;64.50
983;DHT22;480;48.124;11.578;2022-08-03T14:17:55;33.80;66.10
983;DHT22;480;48.124;11.578;2022-08-03T14:20:22;33.90;67.90
983;DHT22;480;48.124;11.578;2022-08-03T14:22:49;34.20;66.70
983;DHT22;480;48.124;11.578;2022-08-03T14:25:17;34.50;66.50
983;DHT22;480;48.124;11.578;2022-08-03T14:27:44;34.50;66.90
983;DHT22;480;48.124;11.578;2022-08-03T14:30:12;34.70;67.40
983;DHT22;480;48.124;11.578;2022-08-03T14:32:39;34.90;67.30
983;DHT22;480;48.124;11.578;2022-08-03T14:35:07;35.00;66.80
983;DHT22;480;48.124;11.578;2022-08-03T14:37:34;34.80;65.30
983;DHT22;480;48.124;11.578;2022-08-03T14:40:02;34.60;64.90
983;DHT22;480;48.124;11.578;2022-08-03T14:42:30;34.70;64.90
983;DHT22;480;48.124;11.578;2022-08-03T14:44:57;34.70;63.20
983;DHT22;480;48.124;11.578;2022-08-03T14:47:24;35.10;62.80
983;DHT22;480;48.124;11.578;2022-08-03T14:49:51;34.80;64.30
983;DHT22;480;48.124;11.578;2022-08-03T14:52:18;34.30;65.10
983;DHT22;480;48.124;11.578;2022-08-03T14:54:45;34.40;64.50
983;DHT22;480;48.124;11.578;2022-08-03T14:57:12;34.70;63.50
983;DHT22;480;48.124;11.578;2022-08-03T14:59:41;34.70;63.30
983;DHT22;480;48.124;11.578;2022-08-03T15:02:08;34.70;64.50
983;DHT22;480;48.124;11.578;2022-08-03T15:04:35;35.20;63.40
983;DHT22;480;48.124;11.578;2022-08-03T15:07:02;34.90;62.90
983;DHT22;480;48.124;11.578;2022-08-03T15:09:29;35.10;63.90
983;DHT22;480;48.124;11.578;2022-08-03T15:11:56;34.90;63.30
983;DHT22;480;48.124;11.578;2022-08-03T15:14:23;34.80;62.60
983;DHT22;480;48.124;11.578;2022-08-03T15:16:52;34.90;63.30
983;DHT22;480;48.124;11.578;2022-08-03T15:19:19;35.00;63.60
983;DHT22;480;48.124;11.578;2022-08-03T15:21:46;34.00;62.70
983;DHT22;480;48.124;11.578;2022-08-03T15:24:13;33.90;65.50
983;DHT22;480;48.124;11.578;2022-08-03T15:26:40;33.70;64.70
983;DHT22;480;48.124;11.578;2022-08-03T15:29:07;33.70;65.20
983;DHT22;480;48.124;11.578;2022-08-03T15:31:34;33.90;65.30
983;DHT22;480;48.124;11.578;2022-08-03T15:34:03;33.80;65.20
983;DHT22;480;48.124;11.578;2022-08-03T15:36:30;34.20;65.10
983;DHT22;480;48.124;11.578;2022-08-03T15:38:58;34.30;65.30
983;DHT22;480;48.124;11.578;2022-08-03T15:41:25;33.90;64.80
983;DHT22;480;48.124;11.578;2022-08-03T15:43:52;33.70;65.60
983;DHT22;480;48.124;11.578;2022-08-03T15:46:19;33.40;65.40
983;DHT22;480;48.124;11.578;2022-08-03T15:48:46;33.50;65.00
983;DHT22;480;48.124;11.578;2022-08-03T15:51:14;33.60;64.70
983;DHT22;480;48.124;11.578;2022-08-03T15:53:41;33.70;66.10
983;DHT22;480;48.124;11.578;2022-08-03T15:56:08;34.00;65.00
983;DHT22;480;48.124;11.578;2022-08-03T15:58:36;33.90;63.60
983;DHT22;480;48.124;11.578;2022-08-03T16:01:04;34.10;65.10
983;DHT22;480;48.124;11.578;2022-08-03T16:03:32;33.80;65.80
983;DHT22;480;48.124;11.578;2022-08-03T16:06:00;33.70;66.10
983;DHT22;480;48.124;11.578;2022-08-03T16:08:29;33.90;64.70
983;DHT22;480;48.124;11.578;2022-08-03T16:10:57;34.20;64.80
983;DHT22;480;48.124;11.578;2022-08-03T16:13:24;34.30;63.70
983;DHT22;480;48.124;11.578;2022-08-03T16:15:51;34.20;63.40
983;DHT22;480;48.124;11.578;2022-08-03T16:18:19;33.90;63.10
983;DHT22;480;48.124;11.578;2022-08-03T16:20:46;33.50;65.10
983;DHT22;480;48.124;11.578;2022-08-03T16:23:14;33.20;66.10
983;DHT22;480;48.124;11.578;2022-08-03T16:25:44;33.20;66.30
983;DHT22;480;48.124;11.578;2022-08-03T16:28:12;32.50;67.20
983;DHT22;480;48.124;11.578;2022-08-03T16:30:40;32.30;66.40